Time;durP1;ratioP1;P1;durP2;ratioP2;P2;SDS_P1;SDS_P2;PMS_P1;PMS_P2;Temp;Humidity;BMP_temperature;BMP_pressure;BME280_temperature;BME280_humidity;BME280_pressure;Samples;Min_cycle;Max_cycle;Signal;HPM_P1;HPM_P2
2022/02/04 00:25:08;;;;;;;;;;;19.20;58.20;;;;;;5006090;28;1283;-70
2022/02/04 00:27:33;;;;;;;;;;;19.20;58.20;;;;;;4991809;28;1240;-69
2022/02/04 00:30:10;;;;;;;;;;;19.20;58.20;;;;;;5007387;28;1228;-69
2022/02/04 00:32:38;;;;;;;;;;;19.10;58.20;;;;;;5011530;28;1326;-69
2022/02/04 00:35:16;;;;;;;;;;;19.10;58.20;;;;;;5007100;28;1963;-69
2022/02/04 00:37:56;;;;;;;;;;;19.20;58.20;;;;;;5004966;28;1130;-69
2022/02/04 00:40:24;;;;;;;;;;;19.10;58.20;;;;;;4998438;28;1288;-69
2022/02/04 00:42:52;;;;;;;;;;;19.10;58.20;;;;;;4997747;28;1102;-66
2022/02/04 00:45:24;;;;;;;;;;;19.10;58.20;;;;;;5009157;28;1245;-68
2022/02/04 00:47:57;;;;;;;;;;;19.10;58.30;;;;;;5006993;28;1047;-67
2022/02/04 00:50:30;;;;;;;;;;;19.10;58.30;;;;;;4990875;28;1313;-66
2022/02/04 00:53:12;;;;;;;;;;;19.10;58.30;;;;;;5007830;28;1240;-68
2022/02/04 00:55:47;;;;;;;;;;;19.10;58.30;;;;;;5007775;28;1970;-69
2022/02/04 01:28:40;;;;;;;;;;;19.00;58.50;;;;;;4954700;29;1344;-68
2022/02/04 01:31:05;;;;;;;;;;;19.00;58.50;;;;;;4954752;29;1367;-67
2022/02/04 01:33:31;;;;;;;;;;;19.00;58.50;;;;;;4982893;28;1103;-70
2022/02/04 01:35:57;;;;;;;;;;;19.00;58.50;;;;;;4997162;28;1965;-68
2022/02/04 01:38:23;;;;;;;;;;;19.00;58.50;;;;;;5014909;28;1080;-69
2022/02/04 01:40:48;;;;;;;;;;;19.00;58.50;;;;;;4980331;28;1374;-68
2022/02/04 01:43:17;;;;;;;;;;;18.90;58.50;;;;;;5014985;28;1065;-67
2022/02/04 01:45:42;;;;;;;;;;;19.00;58.50;;;;;;5015064;28;1392;-68
2022/02/04 01:48:07;;;;;;;;;;;19.00;58.50;;;;;;5015128;28;1313;-68
2022/02/04 01:50:33;;;;;;;;;;;19.00;58.60;;;;;;5014865;28;1312;-68
2022/02/04 01:52:59;;;;;;;;;;;19.00;58.60;;;;;;5015428;28;1297;-68
2022/02/04 01:55:25;;;;;;;;;;;19.00;58.60;;;;;;5014408;28;1969;-67
2022/02/04 01:57:50;;;;;;;;;;;19.00;58.60;;;;;;4997456;28;1259;-67
2022/02/04 02:00:16;;;;;;;;;;;18.90;58.60;;;;;;5014560;28;1280;-68
2022/02/04 02:02:41;;;;;;;;;;;19.00;58.70;;;;;;4991866;28;1448;-68
2022/02/04 02:05:07;;;;;;;;;;;18.90;58.60;;;;;;4997483;28;1721;-65
2022/02/04 02:07:40;;;;;;;;;;;18.90;58.60;;;;;;5014878;28;1618;-70
2022/02/04 02:10:10;;;;;;;;;;;18.90;58.60;;;;;;5014841;28;1604;-68
2022/02/04 02:44:55;;;;;;;;;;;18.90;58.80;;;;;;4996918;28;1311;-67
2022/02/04 02:50:41;;;;;;;;;;;18.80;58.80;;;;;;5013971;28;1021;-68
2022/02/04 02:58:24;;;;;;;;;;;18.80;58.80;;;;;;5013810;28;1349;-69
2022/02/04 03:01:03;;;;;;;;;;;18.80;58.80;;;;;;4996839;28;1332;-68
2022/02/04 03:03:31;;;;;;;;;;;18.80;58.80;;;;;;5013786;28;1045;-68
2022/02/04 03:05:57;;;;;;;;;;;18.80;58.80;;;;;;5013521;28;1372;-67
2022/02/04 03:08:22;;;;;;;;;;;18.80;58.80;;;;;;5013444;28;1334;-68
2022/02/04 03:10:49;;;;;;;;;;;18.80;58.80;;;;;;4996178;28;1268;-68
2022/02/04 03:13:14;;;;;;;;;;;18.80;58.80;;;;;;5013712;28;1291;-68
2022/02/04 03:15:40;;;;;;;;;;;18.80;58.80;;;;;;5013286;28;1954;-68
2022/02/04 03:18:20;;;;;;;;;;;18.80;58.90;;;;;;5013618;28;1498;-67
2022/02/04 03:20:51;;;;;;;;;;;18.80;58.80;;;;;;5013183;28;1369;-68
2022/02/04 03:23:18;;;;;;;;;;;18.80;58.90;;;;;;5013582;28;1057;-67
2022/02/04 03:25:49;;;;;;;;;;;18.80;58.90;;;;;;4995884;28;1414;-68
2022/02/04 03:28:20;;;;;;;;;;;18.80;58.90;;;;;;4980609;28;1350;-67
2022/02/04 03:30:46;;;;;;;;;;;18.80;58.90;;;;;;4997113;28;1336;-68
2022/02/04 03:33:12;;;;;;;;;;;18.80;58.90;;;;;;5013273;28;1093;-66
2022/02/04 03:35:37;;;;;;;;;;;18.80;58.90;;;;;;5012794;28;1898;-67
2022/02/04 03:38:03;;;;;;;;;;;18.80;58.90;;;;;;5013178;28;1376;-69
2022/02/04 03:40:28;;;;;;;;;;;18.80;58.90;;;;;;4995725;28;1312;-67
2022/02/04 03:42:54;;;;;;;;;;;18.80;58.90;;;;;;4995208;28;1415;-69
2022/02/04 03:45:20;;;;;;;;;;;18.80;58.90;;;;;;5012972;28;1311;-67
2022/02/04 03:47:45;;;;;;;;;;;18.80;59.00;;;;;;4995369;28;2044;-68
2022/02/04 03:50:11;;;;;;;;;;;18.80;59.00;;;;;;5012952;28;1200;-67
2022/02/04 03:52:37;;;;;;;;;;;18.80;59.00;;;;;;4995626;28;1315;-68
2022/02/04 03:55:02;;;;;;;;;;;18.70;58.90;;;;;;5013041;28;1957;-68
2022/02/04 03:57:28;;;;;;;;;;;18.80;59.00;;;;;;5012944;28;1081;-67
2022/02/04 03:59:53;;;;;;;;;;;18.80;59.00;;;;;;4995457;28;1338;-67
2022/02/04 04:02:19;;;;;;;;;;;18.70;58.90;;;;;;5012729;28;1380;-68
2022/02/04 04:04:44;;;;;;;;;;;18.70;58.90;;;;;;5012989;28;1101;-69
2022/02/04 04:07:10;;;;;;;;;;;18.70;58.90;;;;;;5012722;28;1420;-67
2022/02/04 04:09:39;;;;;;;;;;;18.70;59.00;;;;;;5012995;28;1320;-68
2022/02/04 04:12:05;;;;;;;;;;;18.70;59.60;;;;;;5012972;28;1587;-68
2022/02/04 04:14:30;;;;;;;;;;;18.70;59.00;;;;;;5013149;28;1592;-67
2022/02/04 04:16:55;;;;;;;;;;;18.70;59.00;;;;;;5012629;28;1962;-67
2022/02/04 04:19:21;;;;;;;;;;;18.70;59.00;;;;;;5013150;28;1385;-68
2022/02/04 04:21:46;;;;;;;;;;;18.70;59.00;;;;;;5012859;28;1418;-67
2022/02/04 04:24:12;;;;;;;;;;;18.70;59.10;;;;;;5013035;28;1574;-68
2022/02/04 04:26:38;;;;;;;;;;;18.70;59.00;;;;;;5012796;28;1654;-67
2022/02/04 04:29:04;;;;;;;;;;;18.70;59.00;;;;;;4995397;28;1590;-69
2022/02/04 04:31:29;;;;;;;;;;;18.70;59.00;;;;;;5012841;28;1419;-68
2022/02/04 04:33:54;;;;;;;;;;;18.70;59.10;;;;;;5012802;28;1381;-67
2022/02/04 04:36:21;;;;;;;;;;;18.70;59.10;;;;;;5012484;28;1890;-69
2022/02/04 04:39:00;;;;;;;;;;;18.70;59.10;;;;;;5012807;28;1495;-67
2022/02/04 05:29:47;;;;;;;;;;;19.00;58.90;;;;;;5015790;28;1510;-67
2022/02/04 05:32:12;;;;;;;;;;;19.10;58.70;;;;;;5015652;28;1345;-67
2022/02/04 05:34:39;;;;;;;;;;;19.20;58.50;;;;;;5015547;28;1663;-67
2022/02/04 05:37:06;;;;;;;;;;;19.30;58.20;;;;;;5015138;28;1890;-67
2022/02/04 05:39:56;;;;;;;;;;;19.50;57.90;;;;;;5015886;28;1605;-67
2022/02/04 05:42:22;;;;;;;;;;;19.60;57.50;;;;;;5014683;28;1663;-68
2022/02/04 05:44:56;;;;;;;;;;;19.80;57.20;;;;;;5005476;28;2029;-67
2022/02/04 05:47:21;;;;;;;;;;;19.90;56.80;;;;;;4987966;28;1338;-71
2022/02/04 05:50:03;;;;;;;;;;;20.10;56.50;;;;;;4997476;28;1557;-69
2022/02/04 05:52:46;;;;;;;;;;;20.20;56.20;;;;;;5014105;28;1811;-68
2022/02/04 05:55:29;;;;;;;;;;;20.30;56.00;;;;;;4999284;28;2003;-67
2022/02/04 05:58:06;;;;;;;;;;;20.40;55.70;;;;;;4999256;28;1558;-68
2022/02/04 06:00:43;;;;;;;;;;;20.50;55.40;;;;;;5014479;28;1417;-69
2022/02/04 06:11:24;;;;;;;;;;;20.80;54.70;;;;;;5014002;28;1256;-68
2022/02/04 06:22:19;;;;;;;;;;;21.00;54.20;;;;;;5013654;28;1368;-68
2022/02/04 06:24:45;;;;;;;;;;;21.10;54.10;;;;;;5013839;28;1021;-72
2022/02/04 06:27:10;;;;;;;;;;;21.10;54.00;;;;;;5013184;28;1326;-71
2022/02/04 06:29:36;;;;;;;;;;;21.10;53.90;;;;;;4995908;28;1085;-67
2022/02/04 06:32:01;;;;;;;;;;;21.10;53.80;;;;;;4995616;28;1218;-67
2022/02/04 06:34:27;;;;;;;;;;;21.20;53.80;;;;;;4995581;28;1113;-66
2022/02/04 06:36:52;;;;;;;;;;;21.20;53.70;;;;;;4995101;28;1906;-66
2022/02/04 06:39:17;;;;;;;;;;;21.30;53.70;;;;;;5013316;28;1349;-66
2022/02/04 06:41:43;;;;;;;;;;;21.30;53.60;;;;;;5012988;28;1522;-67
2022/02/04 06:44:08;;;;;;;;;;;21.30;53.60;;;;;;5013568;28;1059;-66
2022/02/04 06:46:34;;;;;;;;;;;21.30;53.50;;;;;;5012852;28;1283;-67
2022/02/04 06:48:59;;;;;;;;;;;21.40;53.50;;;;;;5012863;28;1250;-67
2022/02/04 06:54:00;;;;;;;;;;;21.40;53.40;;;;;;5272383;22;1736;-68
2022/02/04 06:56:26;;;;;;;;;;;21.40;53.40;;;;;;4975251;28;1915;-67
2022/02/04 06:58:51;;;;;;;;;;;21.50;53.40;;;;;;5010409;28;1654;-68
2022/02/04 07:01:16;;;;;;;;;;;21.50;53.50;;;;;;5010723;28;2072;-68
2022/02/04 07:03:42;;;;;;;;;;;21.50;53.40;;;;;;4983246;28;1657;-69
2022/02/04 07:06:10;;;;;;;;;;;21.50;53.50;;;;;;5036049;22;2050;-69
2022/02/04 07:09:03;;;;;;;;;;;21.50;53.50;;;;;;5022855;28;1554;-68
2022/02/04 07:17:42;;;;;;;;;;;21.50;53.50;;;;;;5033075;28;1918;-69
2022/02/04 07:19:49;;;;;;;;;;;21.50;53.60;;;;;;5028304;28;1651;-70
2022/02/04 07:22:14;;;;;;;;;;;21.40;53.50;;;;;;5032881;28;1622;-70
2022/02/04 07:24:40;;;;;;;;;;;21.40;53.50;;;;;;5033272;28;1361;-68
2022/02/04 07:27:05;;;;;;;;;;;21.40;53.60;;;;;;5028536;28;1992;-68
2022/02/04 07:29:31;;;;;;;;;;;21.40;53.60;;;;;;5033312;28;1527;-69
2022/02/04 07:31:59;;;;;;;;;;;21.40;53.60;;;;;;5031653;28;1347;-68
2022/02/04 07:34:42;;;;;;;;;;;21.40;53.70;;;;;;5032878;28;1649;-67
2022/02/04 07:42:37;;;;;;;;;;;21.30;53.70;;;;;;5032897;28;1648;-68
2022/02/04 07:45:02;;;;;;;;;;;21.30;53.80;;;;;;5032693;28;1427;-68
2022/02/04 07:47:28;;;;;;;;;;;21.30;53.80;;;;;;5033098;28;1353;-68
2022/02/04 07:49:53;;;;;;;;;;;21.30;53.90;;;;;;5032841;28;1426;-66
2022/02/04 07:52:19;;;;;;;;;;;21.20;53.90;;;;;;5032835;28;1247;-67
2022/02/04 07:54:45;;;;;;;;;;;21.20;54.00;;;;;;5032769;28;1484;-68
2022/02/04 07:57:11;;;;;;;;;;;21.20;54.00;;;;;;5028034;28;1890;-67
2022/02/04 07:59:36;;;;;;;;;;;21.20;54.10;;;;;;5030631;28;1608;-68
2022/02/04 08:02:01;;;;;;;;;;;21.10;54.10;;;;;;5032732;28;1392;-69
2022/02/04 08:04:30;;;;;;;;;;;21.10;54.20;;;;;;5032756;28;1685;-69
2022/02/04 08:07:02;;;;;;;;;;;21.10;54.30;;;;;;5031888;28;1350;-68
2022/02/04 08:15:12;;;;;;;;;;;21.00;54.40;;;;;;5031782;28;1609;-67
2022/02/04 08:25:50;;;;;;;;;;;20.90;54.60;;;;;;5026335;28;1308;-68
2022/02/04 08:31:24;;;;;;;;;;;20.90;54.80;;;;;;5023074;28;1231;-68
2022/02/04 08:38:58;;;;;;;;;;;20.80;55.50;;;;;;5036378;28;1459;-68
2022/02/04 08:47:12;;;;;;;;;;;20.80;55.00;;;;;;5035297;28;1674;-68
2022/02/04 08:54:58;;;;;;;;;;;20.70;55.10;;;;;;5035729;28;1355;-67
2022/02/04 08:57:38;;;;;;;;;;;20.70;55.10;;;;;;5036220;28;1615;-68
2022/02/04 09:00:21;;;;;;;;;;;20.70;55.20;;;;;;5035834;28;1377;-68
2022/02/04 09:02:53;;;;;;;;;;;20.70;55.20;;;;;;5035858;28;1336;-67
2022/02/04 09:05:19;;;;;;;;;;;20.70;55.20;;;;;;5035879;28;1341;-66
2022/02/04 09:10:12;;;;;;;;;;;20.60;55.30;;;;;;5035691;28;1333;-67
2022/02/04 09:22:58;;;;;;;;;;;20.60;55.40;;;;;;5034097;28;1602;-67
2022/02/04 09:25:25;;;;;;;;;;;20.60;55.50;;;;;;5035213;28;1345;-67
2022/02/04 09:27:50;;;;;;;;;;;20.60;55.50;;;;;;5034368;28;1635;-68
2022/02/04 09:30:17;;;;;;;;;;;20.60;55.50;;;;;;5034949;28;1669;-67
2022/02/04 09:32:42;;;;;;;;;;;20.60;55.50;;;;;;5029475;28;1264;-67
2022/02/04 09:35:17;;;;;;;;;;;20.60;55.50;;;;;;5027799;28;2035;-68
2022/02/04 09:37:43;;;;;;;;;;;20.60;55.50;;;;;;5025333;28;1416;-67
2022/02/04 09:40:09;;;;;;;;;;;20.60;55.50;;;;;;5027834;28;1106;-67
2022/02/04 09:42:35;;;;;;;;;;;20.60;55.50;;;;;;5029109;28;1246;-67
2022/02/04 09:45:00;;;;;;;;;;;20.60;55.50;;;;;;5030016;28;1343;-67
2022/02/04 09:47:31;;;;;;;;;;;20.60;55.40;;;;;;5028997;28;1311;-67
2022/02/04 09:50:00;;;;;;;;;;;20.60;55.30;;;;;;5026529;28;1240;-68
2022/02/04 10:22:10;;;;;;;;;;;21.00;54.70;;;;;;5027460;28;1708;-68
2022/02/04 10:24:35;;;;;;;;;;;21.00;54.70;;;;;;5034002;28;1134;-68
2022/02/04 10:27:16;;;;;;;;;;;21.00;54.70;;;;;;5029472;28;1272;-67
2022/02/04 10:29:42;;;;;;;;;;;21.00;54.70;;;;;;5032514;28;1114;-67
2022/02/04 10:32:08;;;;;;;;;;;20.90;54.60;;;;;;5032516;28;1345;-68
2022/02/04 10:34:35;;;;;;;;;;;20.90;54.60;;;;;;5033745;28;1270;-68
2022/02/04 10:37:43;;;;;;;;;;;20.90;54.70;;;;;;5033777;28;1910;-67
2022/02/04 10:39:59;;;;;;;;;;;20.90;54.70;;;;;;5030853;28;1391;-68
2022/02/04 10:47:36;;;;;;;;;;;20.90;54.80;;;;;;5033661;28;1086;-68
2022/02/04 10:50:15;;;;;;;;;;;20.90;54.80;;;;;;5032522;28;1428;-68
2022/02/04 10:56:24;;;;;;;;;;;20.90;54.90;;;;;;5033759;28;1894;-69
2022/02/04 10:58:29;;;;;;;;;;;20.80;54.90;;;;;;5015425;28;2310;-69
2022/02/04 11:03:22;;;;;;;;;;;20.80;55.00;;;;;;5028284;28;1360;-69
2022/02/04 11:05:56;;;;;;;;;;;20.80;55.00;;;;;;5028797;28;1331;-69
2022/02/04 11:11:30;;;;;;;;;;;20.80;55.10;;;;;;5032134;28;1075;-69
2022/02/04 11:35:54;;;;;;;;;;;20.70;55.30;;;;;;5021638;28;1910;-69
2022/02/04 11:54:54;;;;;;;;;;;20.60;55.50;;;;;;5026243;28;1290;-70
2022/02/04 11:57:20;;;;;;;;;;;20.60;55.50;;;;;;5032539;28;1962;-71
2022/02/04 11:59:50;;;;;;;;;;;20.60;55.40;;;;;;5032579;28;1134;-70
2022/02/04 12:02:24;;;;;;;;;;;20.60;55.40;;;;;;5032362;28;1237;-70
2022/02/04 12:05:07;;;;;;;;;;;20.70;55.30;;;;;;5032681;28;1401;-70
2022/02/04 12:07:51;;;;;;;;;;;20.70;55.20;;;;;;5035542;28;1320;-70
2022/02/04 12:10:16;;;;;;;;;;;20.80;55.20;;;;;;5036047;28;1388;-70
2022/02/04 12:15:30;;;;;;;;;;;20.90;55.00;;;;;;5033997;28;1965;-72
2022/02/04 12:17:55;;;;;;;;;;;20.90;54.90;;;;;;5034776;28;1398;-70
2022/02/04 12:20:40;;;;;;;;;;;21.00;54.80;;;;;;5034891;28;1428;-70
2022/02/04 12:23:05;;;;;;;;;;;21.00;54.70;;;;;;5034095;28;1377;-68
2022/02/04 12:25:51;;;;;;;;;;;21.00;54.70;;;;;;5034390;28;1327;-69
2022/02/04 12:28:36;;;;;;;;;;;21.00;54.60;;;;;;5029527;28;1364;-70
2022/02/04 12:31:07;;;;;;;;;;;21.10;54.60;;;;;;5023262;28;1235;-71
2022/02/04 12:33:52;;;;;;;;;;;21.10;54.50;;;;;;5035571;28;1239;-70
2022/02/04 12:36:17;;;;;;;;;;;21.10;54.50;;;;;;5028202;28;1898;-70
2022/02/04 12:38:43;;;;;;;;;;;21.10;54.50;;;;;;5035513;28;1176;-69
2022/02/04 12:41:09;;;;;;;;;;;21.10;54.50;;;;;;5034098;28;1277;-69
2022/02/04 12:43:37;;;;;;;;;;;21.10;54.50;;;;;;5035620;28;1071;-71
2022/02/04 12:46:03;;;;;;;;;;;21.10;54.50;;;;;;5034888;28;1307;-70
2022/02/04 12:48:28;;;;;;;;;;;21.10;54.50;;;;;;5035970;28;1052;-71
2022/02/04 12:50:54;;;;;;;;;;;21.10;54.50;;;;;;5035501;28;989;-70
2022/02/04 12:53:27;;;;;;;;;;;21.10;54.60;;;;;;5034881;28;1096;-69
2022/02/04 12:56:20;;;;;;;;;;;21.10;54.60;;;;;;5035552;28;1906;-70
2022/02/04 12:59:42;;;;;;;;;;;21.00;54.50;;;;;;5035848;28;1838;-68
2022/02/04 13:10:02;;;;;;;;;;;21.00;54.70;;;;;;5022327;28;1186;-68
2022/02/04 13:12:28;;;;;;;;;;;21.00;54.70;;;;;;5032598;28;1248;-69
2022/02/04 13:14:54;;;;;;;;;;;21.00;54.70;;;;;;5032775;28;1180;-68
2022/02/04 13:17:29;;;;;;;;;;;20.90;54.70;;;;;;5035332;28;1910;-67
2022/02/04 13:19:55;;;;;;;;;;;20.90;54.80;;;;;;5033880;28;1218;-67
2022/02/04 13:22:21;;;;;;;;;;;20.90;54.80;;;;;;5033515;28;1359;-67
2022/02/04 13:25:02;;;;;;;;;;;20.90;54.80;;;;;;5033674;28;1373;-68
2022/02/04 13:27:27;;;;;;;;;;;20.90;54.90;;;;;;5033718;28;1680;-67
2022/02/04 13:29:53;;;;;;;;;;;20.90;54.90;;;;;;5036184;28;1465;-66
2022/02/04 13:32:22;;;;;;;;;;;20.80;54.90;;;;;;5032864;28;1646;-67
2022/02/04 13:34:47;;;;;;;;;;;20.80;55.00;;;;;;5032880;28;1369;-67
2022/02/04 13:37:26;;;;;;;;;;;20.80;55.00;;;;;;5034241;28;1965;-67
2022/02/04 13:40:06;;;;;;;;;;;20.80;55.00;;;;;;5029396;28;1572;-67
2022/02/04 13:42:44;;;;;;;;;;;20.80;55.10;;;;;;5033105;28;1650;-66
2022/02/04 13:45:46;;;;;;;;;;;20.80;55.10;;;;;;5029645;28;1714;-66
2022/02/04 13:48:31;;;;;;;;;;;20.80;55.20;;;;;;5044327;28;1475;-67
2022/02/04 13:51:08;;;;;;;;;;;20.70;55.70;;;;;;5053808;28;1573;-66
2022/02/04 13:53:39;;;;;;;;;;;20.70;55.20;;;;;;5033099;28;1710;-65
2022/02/04 13:56:29;;;;;;;;;;;20.70;55.20;;;;;;5034387;28;1926;-65
2022/02/04 13:59:13;;;;;;;;;;;20.70;55.30;;;;;;5034345;28;1362;-66
2022/02/04 14:01:45;;;;;;;;;;;20.70;55.30;;;;;;5034094;28;1695;-65
2022/02/04 14:04:11;;;;;;;;;;;20.70;55.30;;;;;;5025361;28;1393;-65
2022/02/04 14:06:37;;;;;;;;;;;20.70;55.40;;;;;;5029132;28;2003;-65
2022/02/04 14:09:13;;;;;;;;;;;20.60;55.40;;;;;;5027249;28;1439;-66
2022/02/04 14:11:39;;;;;;;;;;;20.60;55.40;;;;;;5025666;28;1494;-66
2022/02/04 14:14:08;;;;;;;;;;;20.60;55.40;;;;;;5033192;28;1654;-66
2022/02/04 14:16:34;;;;;;;;;;;20.60;55.50;;;;;;5024650;28;1915;-66
2022/02/04 14:18:59;;;;;;;;;;;20.60;55.50;;;;;;5026049;28;1501;-66
2022/02/04 14:21:25;;;;;;;;;;;20.60;55.50;;;;;;5028802;28;1597;-68
2022/02/04 14:23:54;;;;;;;;;;;20.60;55.50;;;;;;5028839;28;1562;-68
2022/02/04 14:26:26;;;;;;;;;;;20.60;55.50;;;;;;5030993;28;2104;-66
2022/02/04 14:29:06;;;;;;;;;;;20.60;55.60;;;;;;5028154;28;1853;-66
2022/02/04 14:31:41;;;;;;;;;;;20.60;55.60;;;;;;5025487;28;1874;-66
2022/02/04 14:36:57;;;;;;;;;;;20.60;55.70;;;;;;5026914;28;1972;-66
2022/02/04 14:50:49;;;;;;;;;;;20.50;55.80;;;;;;5030931;28;1141;-66
2022/02/04 14:53:19;;;;;;;;;;;20.50;55.80;;;;;;5028108;28;1154;-68
2022/02/04 15:03:55;;;;;;;;;;;20.40;56.00;;;;;;5032322;28;1355;-67
2022/02/04 15:06:40;;;;;;;;;;;20.40;56.00;;;;;;5031761;28;1291;-67
2022/02/04 15:09:08;;;;;;;;;;;20.40;56.00;;;;;;5033148;28;1454;-67
2022/02/04 15:11:35;;;;;;;;;;;20.40;56.00;;;;;;5031976;28;1275;-66
2022/02/04 15:14:01;;;;;;;;;;;20.40;56.00;;;;;;5031655;28;1125;-66
2022/02/04 15:16:27;;;;;;;;;;;20.40;56.00;;;;;;5031358;28;1899;-65
2022/02/04 15:18:52;;;;;;;;;;;20.30;56.00;;;;;;5033101;28;1357;-66
2022/02/04 15:21:19;;;;;;;;;;;20.30;56.00;;;;;;5032519;28;1414;-66
2022/02/04 15:23:47;;;;;;;;;;;20.30;56.10;;;;;;5032785;28;1279;-66
2022/02/04 15:26:14;;;;;;;;;;;20.30;56.10;;;;;;5032790;28;1504;-65
2022/02/04 15:28:43;;;;;;;;;;;20.30;56.10;;;;;;5031556;28;1392;-67
2022/02/04 15:31:17;;;;;;;;;;;20.30;56.10;;;;;;5031484;28;1139;-66
2022/02/04 15:33:45;;;;;;;;;;;20.30;56.10;;;;;;5030988;28;1446;-66
2022/02/04 15:36:10;;;;;;;;;;;20.30;56.20;;;;;;5031224;28;1910;-66
2022/02/04 15:38:36;;;;;;;;;;;20.30;56.20;;;;;;5031951;28;1335;-66
2022/02/04 15:41:02;;;;;;;;;;;20.30;56.20;;;;;;5032408;28;1250;-66
2022/02/04 15:43:30;;;;;;;;;;;20.30;56.20;;;;;;5031230;28;1335;-66
2022/02/04 15:46:17;;;;;;;;;;;20.30;56.20;;;;;;5032660;28;1355;-66
2022/02/04 15:49:10;;;;;;;;;;;20.30;56.30;;;;;;5031951;28;1319;-66
2022/02/04 15:57:13;;;;;;;;;;;20.20;56.30;;;;;;5032316;28;1902;-66
2022/02/04 16:00:00;;;;;;;;;;;20.20;56.30;;;;;;5032436;28;1257;-66
2022/02/04 16:04:55;;;;;;;;;;;20.20;56.40;;;;;;5032730;28;1319;-66
2022/02/04 16:07:24;;;;;;;;;;;20.20;56.40;;;;;;5029065;28;2504;-66
2022/02/04 16:09:55;;;;;;;;;;;20.20;56.40;;;;;;5024409;28;1344;-67
2022/02/04 16:12:26;;;;;;;;;;;20.20;56.40;;;;;;5030997;28;1232;-66
2022/02/04 16:15:03;;;;;;;;;;;20.20;56.40;;;;;;5031399;28;1396;-66
2022/02/04 16:17:36;;;;;;;;;;;20.10;56.40;;;;;;5030899;28;1899;-66
2022/02/04 16:20:37;;;;;;;;;;;20.10;56.40;;;;;;5032292;28;1032;-66
2022/02/04 16:23:03;;;;;;;;;;;20.10;56.40;;;;;;5031666;28;1357;-67
2022/02/04 16:30:38;;;;;;;;;;;20.10;56.50;;;;;;5025845;28;1461;-66
2022/02/04 16:33:04;;;;;;;;;;;20.10;56.50;;;;;;5025300;28;1070;-69
2022/02/04 16:35:29;;;;;;;;;;;20.10;56.50;;;;;;5032220;28;1898;-66
2022/02/04 16:38:02;;;;;;;;;;;20.10;56.50;;;;;;5032561;28;1328;-66
2022/02/04 16:40:28;;;;;;;;;;;20.10;56.60;;;;;;5032110;28;1275;-66
2022/02/04 16:42:53;;;;;;;;;;;20.10;56.60;;;;;;5032354;28;1282;-67
2022/02/04 16:45:19;;;;;;;;;;;20.10;56.60;;;;;;5032457;28;1327;-67
2022/02/04 16:47:45;;;;;;;;;;;20.10;56.60;;;;;;5031132;28;1103;-67
2022/02/04 16:50:10;;;;;;;;;;;20.00;56.60;;;;;;5034364;28;1338;-68
2022/02/04 16:52:36;;;;;;;;;;;20.00;56.60;;;;;;5035819;28;1401;-66
2022/02/04 16:55:01;;;;;;;;;;;20.00;56.60;;;;;;5035810;28;1335;-68
2022/02/04 16:57:28;;;;;;;;;;;20.00;56.60;;;;;;5035773;28;1969;-67
2022/02/04 16:59:56;;;;;;;;;;;20.00;56.70;;;;;;5034654;28;1280;-68
2022/02/04 17:02:22;;;;;;;;;;;20.00;56.70;;;;;;5034646;28;1388;-68
2022/02/04 17:04:47;;;;;;;;;;;20.00;56.70;;;;;;5035661;28;1373;-68
2022/02/04 17:07:20;;;;;;;;;;;20.00;56.70;;;;;;5035608;28;1347;-70
2022/02/04 17:09:49;;;;;;;;;;;20.00;56.80;;;;;;5028464;28;1867;-67
2022/02/04 17:12:17;;;;;;;;;;;20.00;56.70;;;;;;5034009;28;1275;-67
2022/02/04 17:14:42;;;;;;;;;;;20.00;56.80;;;;;;5035712;28;1394;-66
2022/02/04 17:17:08;;;;;;;;;;;20.00;57.40;;;;;;5034291;28;1910;-68
2022/02/04 17:19:42;;;;;;;;;;;20.00;56.80;;;;;;5035759;28;1407;-67
2022/02/04 17:22:10;;;;;;;;;;;20.00;56.80;;;;;;5035077;28;1634;-66
2022/02/04 17:24:35;;;;;;;;;;;20.00;56.80;;;;;;5035553;28;1337;-67
2022/02/04 17:29:36;;;;;;;;;;;20.00;56.80;;;;;;5587913;22;2266;-66
2022/02/04 17:32:01;;;;;;;;;;;20.00;56.80;;;;;;5024650;28;1973;-66
2022/02/04 17:34:27;;;;;;;;;;;20.00;56.80;;;;;;5030992;28;1490;-66
2022/02/04 17:36:52;;;;;;;;;;;20.00;57.40;;;;;;5034007;28;1962;-66
2022/02/04 17:39:21;;;;;;;;;;;20.00;56.80;;;;;;5032349;28;1375;-66
2022/02/04 17:41:48;;;;;;;;;;;19.90;56.80;;;;;;5034896;28;1412;-66
2022/02/04 17:44:14;;;;;;;;;;;20.00;56.90;;;;;;5056606;22;3105;-67
2022/02/04 17:46:40;;;;;;;;;;;19.90;56.80;;;;;;5047464;28;1422;-65
2022/02/04 17:49:16;;;;;;;;;;;19.90;56.80;;;;;;5004316;28;1284;-66
2022/02/04 17:51:51;;;;;;;;;;;20.00;56.90;;;;;;5051832;28;1338;-66
2022/02/04 17:54:21;;;;;;;;;;;19.90;56.90;;;;;;5054618;28;1427;-65
2022/02/04 17:57:01;;;;;;;;;;;19.90;56.90;;;;;;5054891;28;1917;-67
2022/02/04 18:07:10;;;;;;;;;;;19.90;56.90;;;;;;5055072;28;1565;-66
2022/02/04 18:09:36;;;;;;;;;;;20.00;57.00;;;;;;5049455;28;2430;-66
2022/02/04 18:12:02;;;;;;;;;;;19.90;56.90;;;;;;5058812;28;2012;-66
2022/02/04 18:14:27;;;;;;;;;;;20.00;57.00;;;;;;5061680;28;1737;-66
2022/02/04 18:16:53;;;;;;;;;;;19.90;57.00;;;;;;5063140;28;1922;-66
2022/02/04 18:19:18;;;;;;;;;;;19.90;57.00;;;;;;5050314;28;1580;-67
2022/02/04 18:21:44;;;;;;;;;;;19.90;57.00;;;;;;5044866;28;1156;-66
2022/02/04 18:24:09;;;;;;;;;;;19.90;57.00;;;;;;5062870;28;1421;-67
2022/02/04 18:26:35;;;;;;;;;;;19.90;57.00;;;;;;5041444;28;1443;-67
2022/02/04 18:29:00;;;;;;;;;;;19.90;57.00;;;;;;5061691;28;1589;-68
2022/02/04 18:31:28;;;;;;;;;;;19.90;57.00;;;;;;5061863;28;1468;-69
2022/02/04 18:33:54;;;;;;;;;;;19.90;57.60;;;;;;5061731;28;1399;-68
2022/02/04 18:36:19;;;;;;;;;;;19.90;57.00;;;;;;5061560;28;1902;-69
2022/02/04 18:38:52;;;;;;;;;;;19.90;57.00;;;;;;5061681;28;1512;-66
2022/02/04 18:41:45;;;;;;;;;;;19.90;57.00;;;;;;5062380;28;1696;-68
2022/02/04 18:44:12;;;;;;;;;;;19.90;57.00;;;;;;5036800;28;1605;-66
2022/02/04 18:46:56;;;;;;;;;;;19.90;57.00;;;;;;5063585;28;1674;-68
2022/02/04 18:49:27;;;;;;;;;;;19.90;57.00;;;;;;5060962;28;1611;-69
2022/02/04 18:52:06;;;;;;;;;;;19.90;57.30;;;;;;5043134;28;1677;-69
2022/02/04 18:54:56;;;;;;;;;;;19.90;57.00;;;;;;5047380;28;1307;-68
2022/02/04 18:57:23;;;;;;;;;;;19.90;57.00;;;;;;5058808;28;1951;-70
2022/02/04 18:59:57;;;;;;;;;;;19.90;57.00;;;;;;5058846;28;1659;-67
2022/02/04 19:02:24;;;;;;;;;;;19.90;57.00;;;;;;5045577;28;1641;-66
2022/02/04 19:05:04;;;;;;;;;;;19.90;57.10;;;;;;5042688;28;1733;-67
2022/02/04 19:07:44;;;;;;;;;;;19.90;57.10;;;;;;5064377;28;1447;-67
2022/02/04 19:10:09;;;;;;;;;;;19.90;57.10;;;;;;5043095;28;1709;-67
2022/02/04 19:12:52;;;;;;;;;;;19.90;57.10;;;;;;5054139;28;1406;-67
2022/02/04 19:18:00;;;;;;;;;;;19.90;57.00;;;;;;5052365;28;1439;-67
2022/02/04 19:20:40;;;;;;;;;;;19.90;57.10;;;;;;5038706;28;1594;-67
2022/02/04 19:23:11;;;;;;;;;;;19.90;57.10;;;;;;5026178;28;1681;-67
2022/02/04 19:25:39;;;;;;;;;;;19.90;57.10;;;;;;5055689;28;1471;-67
2022/02/04 19:28:07;;;;;;;;;;;19.90;57.10;;;;;;5036756;28;1732;-67
2022/02/04 19:30:34;;;;;;;;;;;19.90;57.10;;;;;;5054691;28;1611;-67
2022/02/04 19:33:00;;;;;;;;;;;19.90;57.10;;;;;;5036678;28;1594;-67
2022/02/04 19:35:26;;;;;;;;;;;19.90;57.10;;;;;;5037489;28;1906;-67
2022/02/04 19:37:53;;;;;;;;;;;19.90;57.10;;;;;;5054290;28;1369;-67
2022/02/04 19:40:19;;;;;;;;;;;19.90;57.10;;;;;;5019368;28;1336;-66
2022/02/04 19:42:47;;;;;;;;;;;19.90;57.10;;;;;;5053977;28;1447;-67
2022/02/04 19:45:19;;;;;;;;;;;19.90;57.10;;;;;;5055105;28;1728;-66
2022/02/04 19:47:57;;;;;;;;;;;19.80;57.10;;;;;;5037294;28;1722;-66
2022/02/04 19:50:30;;;;;;;;;;;19.90;57.20;;;;;;5053200;28;1625;-66
2022/02/04 20:07:39;;;;;;;;;;;19.80;57.20;;;;;;5071198;28;1415;-69
2022/02/04 20:23:35;;;;;;;;;;;19.80;57.20;;;;;;5043090;28;1493;-68
2022/02/04 20:26:01;;;;;;;;;;;19.80;57.20;;;;;;5047690;28;1507;-68
2022/02/04 20:28:27;;;;;;;;;;;19.80;57.40;;;;;;5055512;28;1060;-68
2022/02/04 20:31:00;;;;;;;;;;;19.80;57.30;;;;;;5037875;28;1237;-68
2022/02/04 20:33:26;;;;;;;;;;;19.80;57.30;;;;;;5038528;28;1537;-69
2022/02/04 20:35:51;;;;;;;;;;;19.80;57.20;;;;;;5055617;28;1967;-69
2022/02/04 20:38:19;;;;;;;;;;;19.80;57.20;;;;;;5038322;28;1067;-69
2022/02/04 20:40:54;;;;;;;;;;;19.80;57.20;;;;;;5057494;28;1284;-69
2022/02/04 20:43:24;;;;;;;;;;;19.80;57.20;;;;;;5068541;28;1296;-70
2022/02/04 20:45:50;;;;;;;;;;;19.80;57.20;;;;;;5067833;28;1323;-69
2022/02/04 20:48:16;;;;;;;;;;;19.80;57.20;;;;;;5067951;28;1354;-68
2022/02/04 20:50:42;;;;;;;;;;;19.80;57.20;;;;;;5059747;28;1283;-71
2022/02/04 20:53:08;;;;;;;;;;;19.80;57.20;;;;;;5050931;28;1372;-68
2022/02/04 20:55:38;;;;;;;;;;;19.80;57.30;;;;;;5069479;28;1902;-66
2022/02/04 20:58:07;;;;;;;;;;;19.80;57.30;;;;;;5033691;28;1257;-68
2022/02/04 21:00:37;;;;;;;;;;;19.80;57.30;;;;;;5069690;28;1185;-69
2022/02/04 21:03:05;;;;;;;;;;;19.80;57.30;;;;;;5064935;28;1308;-67
2022/02/04 21:15:57;;;;;;;;;;;19.80;57.30;;;;;;5063302;28;1953;-67
2022/02/04 21:18:23;;;;;;;;;;;19.80;57.20;;;;;;5038923;28;1402;-65
2022/02/04 21:20:49;;;;;;;;;;;19.80;57.30;;;;;;5039294;28;1286;-66
2022/02/04 21:23:17;;;;;;;;;;;19.80;57.30;;;;;;5043099;28;1336;-66
2022/02/04 21:25:42;;;;;;;;;;;19.80;57.30;;;;;;5048381;28;1092;-67